sensor_id;sensor_type;location;lat;lon;timestamp;temperature;humidity
30069;DHT22;16894;49.456;10.644;2022-10-15T00:00:42;13.30;99.90
30069;DHT22;16894;49.456;10.644;2022-10-15T00:03:08;13.30;99.90
30069;DHT22;16894;49.456;10.644;2022-10-15T00:05:38;13.30;99.90
30069;DHT22;16894;49.456;10.644;2022-10-15T00:08:04;13.30;99.90
30069;DHT22;16894;49.456;10.644;2022-10-15T00:10:30;13.30;99.90
30069;DHT22;16894;49.456;10.644;2022-10-15T00:12:56;13.20;99.90
30069;DHT22;16894;49.456;10.644;2022-10-15T00:15:21;13.20;99.90
30069;DHT22;16894;49.456;10.644;2022-10-15T00:17:47;13.20;99.90
30069;DHT22;16894;49.456;10.644;2022-10-15T00:20:13;13.20;99.90
30069;DHT22;16894;49.456;10.644;2022-10-15T00:22:39;13.20;99.90
30069;DHT22;16894;49.456;10.644;2022-10-15T00:25:05;13.20;99.90
30069;DHT22;16894;49.456;10.644;2022-10-15T00:27:33;13.20;99.90
30069;DHT22;16894;49.456;10.644;2022-10-15T00:29:58;13.20;99.90
30069;DHT22;16894;49.456;10.644;2022-10-15T00:32:25;13.20;99.90
30069;DHT22;16894;49.456;10.644;2022-10-15T00:34:50;13.20;99.90
30069;DHT22;16894;49.456;10.644;2022-10-15T00:37:16;13.20;99.90
30069;DHT22;16894;49.456;10.644;2022-10-15T00:39:42;13.20;99.90
30069;DHT22;16894;49.456;10.644;2022-10-15T00:42:09;13.20;99.90
30069;DHT22;16894;49.456;10.644;2022-10-15T00:44:53;13.30;99.90
30069;DHT22;16894;49.456;10.644;2022-10-15T00:47:21;13.30;99.90
30069;DHT22;16894;49.456;10.644;2022-10-15T00:52:26;13.30;99.90
30069;DHT22;16894;49.456;10.644;2022-10-15T00:55:02;13.30;99.90
30069;DHT22;16894;49.456;10.644;2022-10-15T00:57:30;13.30;99.90
30069;DHT22;16894;49.456;10.644;2022-10-15T00:59:59;13.30;99.90
30069;DHT22;16894;49.456;10.644;2022-10-15T01:02:26;13.30;99.90
30069;DHT22;16894;49.456;10.644;2022-10-15T01:04:52;13.30;99.90
30069;DHT22;16894;49.456;10.644;2022-10-15T01:07:18;13.30;99.90
30069;DHT22;16894;49.456;10.644;2022-10-15T01:09:44;13.30;99.90
30069;DHT22;16894;49.456;10.644;2022-10-15T01:12:24;13.30;99.90
30069;DHT22;16894;49.456;10.644;2022-10-15T01:17:56;13.30;99.90
30069;DHT22;16894;49.456;10.644;2022-10-15T01:32:25;13.30;99.90
30069;DHT22;16894;49.456;10.644;2022-10-15T01:40:25;13.40;99.90
30069;DHT22;16894;49.456;10.644;2022-10-15T01:43:06;13.40;99.90
30069;DHT22;16894;49.456;10.644;2022-10-15T01:45:40;13.40;99.90
30069;DHT22;16894;49.456;10.644;2022-10-15T01:48:10;13.40;99.90
30069;DHT22;16894;49.456;10.644;2022-10-15T01:50:39;13.40;99.90
30069;DHT22;16894;49.456;10.644;2022-10-15T01:53:08;13.40;99.90
30069;DHT22;16894;49.456;10.644;2022-10-15T01:55:36;13.40;99.90
30069;DHT22;16894;49.456;10.644;2022-10-15T01:58:06;13.40;99.90
30069;DHT22;16894;49.456;10.644;2022-10-15T02:00:32;13.40;99.90
30069;DHT22;16894;49.456;10.644;2022-10-15T02:03:01;13.40;99.90
30069;DHT22;16894;49.456;10.644;2022-10-15T02:05:38;13.40;99.90
30069;DHT22;16894;49.456;10.644;2022-10-15T02:08:20;13.40;99.90
30069;DHT22;16894;49.456;10.644;2022-10-15T02:11:09;13.40;99.90
30069;DHT22;16894;49.456;10.644;2022-10-15T02:14:02;13.40;99.90
30069;DHT22;16894;49.456;10.644;2022-10-15T02:16:43;13.40;99.90
30069;DHT22;16894;49.456;10.644;2022-10-15T02:19:32;13.40;99.90
30069;DHT22;16894;49.456;10.644;2022-10-15T02:27:13;13.40;99.90
30069;DHT22;16894;49.456;10.644;2022-10-15T02:29:41;13.40;99.90
30069;DHT22;16894;49.456;10.644;2022-10-15T02:32:09;13.40;99.90
30069;DHT22;16894;49.456;10.644;2022-10-15T02:34:36;13.40;99.90
30069;DHT22;16894;49.456;10.644;2022-10-15T02:37:04;13.50;99.90
30069;DHT22;16894;49.456;10.644;2022-10-15T02:39:30;13.50;99.90
30069;DHT22;16894;49.456;10.644;2022-10-15T02:41:56;13.50;99.90
30069;DHT22;16894;49.456;10.644;2022-10-15T02:44:22;13.40;99.90
30069;DHT22;16894;49.456;10.644;2022-10-15T02:46:47;13.40;99.90
30069;DHT22;16894;49.456;10.644;2022-10-15T02:49:13;13.40;99.90
30069;DHT22;16894;49.456;10.644;2022-10-15T02:51:39;13.40;99.90
30069;DHT22;16894;49.456;10.644;2022-10-15T02:54:05;13.40;99.90
30069;DHT22;16894;49.456;10.644;2022-10-15T02:56:31;13.40;99.90
30069;DHT22;16894;49.456;10.644;2022-10-15T02:58:57;13.40;99.90
30069;DHT22;16894;49.456;10.644;2022-10-15T03:01:22;13.40;99.90
30069;DHT22;16894;49.456;10.644;2022-10-15T03:03:48;13.40;99.90
30069;DHT22;16894;49.456;10.644;2022-10-15T03:06:14;13.50;99.90
30069;DHT22;16894;49.456;10.644;2022-10-15T03:08:40;13.50;99.90
30069;DHT22;16894;49.456;10.644;2022-10-15T03:11:07;13.40;99.90
30069;DHT22;16894;49.456;10.644;2022-10-15T03:13:36;13.40;99.90
30069;DHT22;16894;49.456;10.644;2022-10-15T03:16:07;13.40;99.90
30069;DHT22;16894;49.456;10.644;2022-10-15T03:18:33;13.40;99.90
30069;DHT22;16894;49.456;10.644;2022-10-15T03:20:59;13.50;99.90
30069;DHT22;16894;49.456;10.644;2022-10-15T03:23:26;13.50;99.90
30069;DHT22;16894;49.456;10.644;2022-10-15T03:25:52;13.50;99.90
30069;DHT22;16894;49.456;10.644;2022-10-15T03:28:19;13.50;99.90
30069;DHT22;16894;49.456;10.644;2022-10-15T03:30:44;13.50;99.90
30069;DHT22;16894;49.456;10.644;2022-10-15T03:33:10;13.50;99.90
30069;DHT22;16894;49.456;10.644;2022-10-15T03:35:36;13.50;99.90
30069;DHT22;16894;49.456;10.644;2022-10-15T03:38:02;13.50;99.90
30069;DHT22;16894;49.456;10.644;2022-10-15T03:40:27;13.50;99.90
30069;DHT22;16894;49.456;10.644;2022-10-15T03:42:53;13.50;99.90
30069;DHT22;16894;49.456;10.644;2022-10-15T03:45:21;13.50;99.90
30069;DHT22;16894;49.456;10.644;2022-10-15T03:47:46;13.50;99.90
30069;DHT22;16894;49.456;10.644;2022-10-15T03:50:12;13.50;99.90
30069;DHT22;16894;49.456;10.644;2022-10-15T03:52:38;13.60;99.90
30069;DHT22;16894;49.456;10.644;2022-10-15T03:55:05;13.60;99.90
30069;DHT22;16894;49.456;10.644;2022-10-15T03:57:31;13.50;99.90
30069;DHT22;16894;49.456;10.644;2022-10-15T03:59:57;13.50;99.90
30069;DHT22;16894;49.456;10.644;2022-10-15T04:02:23;13.50;99.90
30069;DHT22;16894;49.456;10.644;2022-10-15T04:04:51;13.50;99.90
30069;DHT22;16894;49.456;10.644;2022-10-15T04:07:18;13.50;99.90
30069;DHT22;16894;49.456;10.644;2022-10-15T04:09:44;13.50;99.90
30069;DHT22;16894;49.456;10.644;2022-10-15T04:12:10;13.50;99.90
30069;DHT22;16894;49.456;10.644;2022-10-15T04:14:35;13.60;99.90
30069;DHT22;16894;49.456;10.644;2022-10-15T04:17:01;13.60;99.90
30069;DHT22;16894;49.456;10.644;2022-10-15T04:19:26;13.60;99.90
30069;DHT22;16894;49.456;10.644;2022-10-15T04:21:52;13.60;99.90
30069;DHT22;16894;49.456;10.644;2022-10-15T04:24:18;13.60;99.90
30069;DHT22;16894;49.456;10.644;2022-10-15T04:26:43;13.60;99.90
30069;DHT22;16894;49.456;10.644;2022-10-15T04:29:09;13.60;99.90
30069;DHT22;16894;49.456;10.644;2022-10-15T04:31:34;13.60;99.90
30069;DHT22;16894;49.456;10.644;2022-10-15T04:34:02;13.60;99.90
30069;DHT22;16894;49.456;10.644;2022-10-15T04:36:28;13.60;99.90
30069;DHT22;16894;49.456;10.644;2022-10-15T04:38:53;13.60;99.90
30069;DHT22;16894;49.456;10.644;2022-10-15T04:41:19;13.60;99.90
30069;DHT22;16894;49.456;10.644;2022-10-15T04:43:44;13.60;99.90
30069;DHT22;16894;49.456;10.644;2022-10-15T04:46:10;13.60;99.90
30069;DHT22;16894;49.456;10.644;2022-10-15T04:48:37;13.60;99.90
30069;DHT22;16894;49.456;10.644;2022-10-15T04:51:04;13.60;99.90
30069;DHT22;16894;49.456;10.644;2022-10-15T04:53:31;13.60;99.90
30069;DHT22;16894;49.456;10.644;2022-10-15T04:56:02;13.60;99.90
30069;DHT22;16894;49.456;10.644;2022-10-15T04:58:29;13.70;99.90
30069;DHT22;16894;49.456;10.644;2022-10-15T05:01:01;13.70;99.90
30069;DHT22;16894;49.456;10.644;2022-10-15T05:03:28;13.70;99.90
30069;DHT22;16894;49.456;10.644;2022-10-15T05:05:58;13.70;99.90
30069;DHT22;16894;49.456;10.644;2022-10-15T05:08:23;13.70;99.90
30069;DHT22;16894;49.456;10.644;2022-10-15T05:10:49;13.70;99.90
30069;DHT22;16894;49.456;10.644;2022-10-15T05:13:15;13.70;99.90
30069;DHT22;16894;49.456;10.644;2022-10-15T05:15:40;13.70;99.90
30069;DHT22;16894;49.456;10.644;2022-10-15T05:18:06;13.70;99.90
30069;DHT22;16894;49.456;10.644;2022-10-15T05:20:31;13.70;99.90
30069;DHT22;16894;49.456;10.644;2022-10-15T05:22:57;13.70;99.90
30069;DHT22;16894;49.456;10.644;2022-10-15T05:25:23;13.80;99.90
30069;DHT22;16894;49.456;10.644;2022-10-15T05:27:48;13.80;99.90
30069;DHT22;16894;49.456;10.644;2022-10-15T05:30:14;13.80;99.90
30069;DHT22;16894;49.456;10.644;2022-10-15T05:32:39;13.80;99.90
30069;DHT22;16894;49.456;10.644;2022-10-15T05:35:05;13.90;99.90
30069;DHT22;16894;49.456;10.644;2022-10-15T05:37:31;13.90;99.90
30069;DHT22;16894;49.456;10.644;2022-10-15T05:39:56;13.90;99.90
30069;DHT22;16894;49.456;10.644;2022-10-15T05:42:22;13.90;99.90
30069;DHT22;16894;49.456;10.644;2022-10-15T05:44:48;14.00;99.90
30069;DHT22;16894;49.456;10.644;2022-10-15T05:47:13;14.00;99.90
30069;DHT22;16894;49.456;10.644;2022-10-15T05:49:39;14.00;99.90
30069;DHT22;16894;49.456;10.644;2022-10-15T05:52:04;14.00;99.90
30069;DHT22;16894;49.456;10.644;2022-10-15T05:54:30;14.10;99.90
30069;DHT22;16894;49.456;10.644;2022-10-15T05:56:56;14.10;99.90
30069;DHT22;16894;49.456;10.644;2022-10-15T05:59:21;14.10;99.90
30069;DHT22;16894;49.456;10.644;2022-10-15T06:01:47;14.10;99.90
30069;DHT22;16894;49.456;10.644;2022-10-15T06:04:12;14.20;99.90
30069;DHT22;16894;49.456;10.644;2022-10-15T06:06:38;14.20;99.90
30069;DHT22;16894;49.456;10.644;2022-10-15T06:09:03;14.30;99.90
30069;DHT22;16894;49.456;10.644;2022-10-15T06:11:29;14.30;99.90
30069;DHT22;16894;49.456;10.644;2022-10-15T06:13:55;14.30;99.90
30069;DHT22;16894;49.456;10.644;2022-10-15T06:16:20;14.30;99.90
30069;DHT22;16894;49.456;10.644;2022-10-15T06:18:46;14.40;99.90
30069;DHT22;16894;49.456;10.644;2022-10-15T06:21:12;14.40;99.90
30069;DHT22;16894;49.456;10.644;2022-10-15T06:23:38;14.40;99.90
30069;DHT22;16894;49.456;10.644;2022-10-15T06:26:07;14.50;99.90
30069;DHT22;16894;49.456;10.644;2022-10-15T06:28:34;14.50;99.90
30069;DHT22;16894;49.456;10.644;2022-10-15T06:31:01;14.50;99.90
30069;DHT22;16894;49.456;10.644;2022-10-15T06:33:27;14.50;99.90
30069;DHT22;16894;49.456;10.644;2022-10-15T06:35:53;14.50;99.90
30069;DHT22;16894;49.456;10.644;2022-10-15T06:38:19;14.60;99.90
30069;DHT22;16894;49.456;10.644;2022-10-15T06:40:44;14.60;99.90
30069;DHT22;16894;49.456;10.644;2022-10-15T06:43:10;14.60;99.90
30069;DHT22;16894;49.456;10.644;2022-10-15T06:45:40;14.70;99.90
30069;DHT22;16894;49.456;10.644;2022-10-15T06:48:09;14.70;99.90
30069;DHT22;16894;49.456;10.644;2022-10-15T06:50:36;14.80;99.90
30069;DHT22;16894;49.456;10.644;2022-10-15T06:53:02;14.80;99.90
30069;DHT22;16894;49.456;10.644;2022-10-15T06:55:28;14.80;99.90
30069;DHT22;16894;49.456;10.644;2022-10-15T06:57:54;14.90;99.90
30069;DHT22;16894;49.456;10.644;2022-10-15T07:00:21;14.90;99.90
30069;DHT22;16894;49.456;10.644;2022-10-15T07:02:46;15.00;99.90
30069;DHT22;16894;49.456;10.644;2022-10-15T07:05:12;14.90;99.90
30069;DHT22;16894;49.456;10.644;2022-10-15T07:07:38;14.90;99.90
30069;DHT22;16894;49.456;10.644;2022-10-15T07:10:04;14.90;99.90
30069;DHT22;16894;49.456;10.644;2022-10-15T07:12:29;15.00;99.90
30069;DHT22;16894;49.456;10.644;2022-10-15T07:14:55;15.00;99.90
30069;DHT22;16894;49.456;10.644;2022-10-15T07:17:21;15.00;99.90
30069;DHT22;16894;49.456;10.644;2022-10-15T07:19:46;15.00;99.90
30069;DHT22;16894;49.456;10.644;2022-10-15T07:22:12;15.10;99.90
30069;DHT22;16894;49.456;10.644;2022-10-15T07:24:37;15.10;99.90
30069;DHT22;16894;49.456;10.644;2022-10-15T07:27:04;15.20;99.90
30069;DHT22;16894;49.456;10.644;2022-10-15T07:29:29;15.20;99.90
30069;DHT22;16894;49.456;10.644;2022-10-15T07:31:56;15.20;99.90
30069;DHT22;16894;49.456;10.644;2022-10-15T07:34:21;15.20;99.90
30069;DHT22;16894;49.456;10.644;2022-10-15T07:36:47;15.20;99.90
30069;DHT22;16894;49.456;10.644;2022-10-15T07:39:13;15.20;99.90
30069;DHT22;16894;49.456;10.644;2022-10-15T07:41:38;15.20;99.90
30069;DHT22;16894;49.456;10.644;2022-10-15T07:44:05;15.20;99.90
30069;DHT22;16894;49.456;10.644;2022-10-15T07:46:30;15.20;99.90
30069;DHT22;16894;49.456;10.644;2022-10-15T07:48:56;15.30;99.90
30069;DHT22;16894;49.456;10.644;2022-10-15T07:51:22;15.30;99.90
30069;DHT22;16894;49.456;10.644;2022-10-15T07:53:47;15.30;99.90
30069;DHT22;16894;49.456;10.644;2022-10-15T07:56:14;15.20;99.90
30069;DHT22;16894;49.456;10.644;2022-10-15T07:58:40;15.30;99.90
30069;DHT22;16894;49.456;10.644;2022-10-15T08:01:08;15.40;99.90
30069;DHT22;16894;49.456;10.644;2022-10-15T08:03:36;15.40;99.90
30069;DHT22;16894;49.456;10.644;2022-10-15T08:06:04;15.40;99.90
30069;DHT22;16894;49.456;10.644;2022-10-15T08:08:30;15.40;99.90
30069;DHT22;16894;49.456;10.644;2022-10-15T08:10:56;15.40;99.90
30069;DHT22;16894;49.456;10.644;2022-10-15T08:13:22;15.40;99.90
30069;DHT22;16894;49.456;10.644;2022-10-15T08:15:47;15.40;99.90
30069;DHT22;16894;49.456;10.644;2022-10-15T08:18:13;15.50;99.90
30069;DHT22;16894;49.456;10.644;2022-10-15T08:20:39;15.50;99.90
30069;DHT22;16894;49.456;10.644;2022-10-15T08:23:06;15.50;99.90
30069;DHT22;16894;49.456;10.644;2022-10-15T08:25:37;15.40;99.90
30069;DHT22;16894;49.456;10.644;2022-10-15T08:28:03;15.40;99.90
30069;DHT22;16894;49.456;10.644;2022-10-15T08:30:29;15.40;99.90
30069;DHT22;16894;49.456;10.644;2022-10-15T08:32:54;15.40;99.90
30069;DHT22;16894;49.456;10.644;2022-10-15T08:35:20;15.40;99.90
30069;DHT22;16894;49.456;10.644;2022-10-15T08:37:46;15.50;99.90
30069;DHT22;16894;49.456;10.644;2022-10-15T08:40:12;15.50;99.90
30069;DHT22;16894;49.456;10.644;2022-10-15T08:42:41;15.50;99.90
30069;DHT22;16894;49.456;10.644;2022-10-15T08:45:16;15.50;99.90
30069;DHT22;16894;49.456;10.644;2022-10-15T08:47:52;15.50;99.90
30069;DHT22;16894;49.456;10.644;2022-10-15T08:53:19;15.50;99.90
30069;DHT22;16894;49.456;10.644;2022-10-15T08:55:48;15.50;99.90
30069;DHT22;16894;49.456;10.644;2022-10-15T08:58:23;15.60;99.90
30069;DHT22;16894;49.456;10.644;2022-10-15T09:01:01;15.50;99.90
30069;DHT22;16894;49.456;10.644;2022-10-15T09:06:12;15.70;99.90
30069;DHT22;16894;49.456;10.644;2022-10-15T09:13:56;15.80;99.90
30069;DHT22;16894;49.456;10.644;2022-10-15T09:16:33;15.80;99.90
30069;DHT22;16894;49.456;10.644;2022-10-15T09:19:02;15.90;99.90
30069;DHT22;16894;49.456;10.644;2022-10-15T09:21:29;16.00;99.90
30069;DHT22;16894;49.456;10.644;2022-10-15T09:24:03;16.00;99.90
30069;DHT22;16894;49.456;10.644;2022-10-15T09:29:47;16.20;99.90
30069;DHT22;16894;49.456;10.644;2022-10-15T09:32:26;16.20;99.90
30069;DHT22;16894;49.456;10.644;2022-10-15T09:40:38;16.40;99.90
30069;DHT22;16894;49.456;10.644;2022-10-15T09:43:09;16.50;99.90
30069;DHT22;16894;49.456;10.644;2022-10-15T09:45:36;16.50;99.90
30069;DHT22;16894;49.456;10.644;2022-10-15T09:48:14;16.40;99.90
30069;DHT22;16894;49.456;10.644;2022-10-15T09:51:21;16.30;99.90
30069;DHT22;16894;49.456;10.644;2022-10-15T09:56:27;16.20;99.90
30069;DHT22;16894;49.456;10.644;2022-10-15T09:58:58;16.30;99.90
30069;DHT22;16894;49.456;10.644;2022-10-15T10:01:30;16.20;99.90
30069;DHT22;16894;49.456;10.644;2022-10-15T10:04:17;16.30;99.90
30069;DHT22;16894;49.456;10.644;2022-10-15T10:06:51;16.40;99.90
30069;DHT22;16894;49.456;10.644;2022-10-15T10:09:20;16.40;99.90
30069;DHT22;16894;49.456;10.644;2022-10-15T10:11:51;16.50;99.90
30069;DHT22;16894;49.456;10.644;2022-10-15T10:14:32;16.50;99.90
30069;DHT22;16894;49.456;10.644;2022-10-15T10:17:12;16.70;99.90
30069;DHT22;16894;49.456;10.644;2022-10-15T10:19:43;16.80;99.90
30069;DHT22;16894;49.456;10.644;2022-10-15T10:22:19;16.80;99.90
30069;DHT22;16894;49.456;10.644;2022-10-15T10:24:46;16.90;99.90
30069;DHT22;16894;49.456;10.644;2022-10-15T10:27:24;17.00;99.90
30069;DHT22;16894;49.456;10.644;2022-10-15T10:29:58;17.30;99.90
30069;DHT22;16894;49.456;10.644;2022-10-15T10:32:30;17.40;99.90
30069;DHT22;16894;49.456;10.644;2022-10-15T10:34:58;17.40;99.90
30069;DHT22;16894;49.456;10.644;2022-10-15T10:37:25;17.50;99.90
30069;DHT22;16894;49.456;10.644;2022-10-15T10:39:53;17.50;99.90
30069;DHT22;16894;49.456;10.644;2022-10-15T10:42:26;17.50;99.90
30069;DHT22;16894;49.456;10.644;2022-10-15T10:44:53;17.50;99.90
30069;DHT22;16894;49.456;10.644;2022-10-15T10:47:22;17.60;99.90
30069;DHT22;16894;49.456;10.644;2022-10-15T10:49:53;17.70;99.90
30069;DHT22;16894;49.456;10.644;2022-10-15T10:52:31;17.70;99.90
30069;DHT22;16894;49.456;10.644;2022-10-15T10:55:16;17.70;99.90
30069;DHT22;16894;49.456;10.644;2022-10-15T11:00:14;18.00;99.90
30069;DHT22;16894;49.456;10.644;2022-10-15T11:02:42;18.10;99.90
30069;DHT22;16894;49.456;10.644;2022-10-15T11:05:10;18.20;99.90
30069;DHT22;16894;49.456;10.644;2022-10-15T11:08:23;18.30;99.90
30069;DHT22;16894;49.456;10.644;2022-10-15T11:10:53;18.40;99.90
30069;DHT22;16894;49.456;10.644;2022-10-15T11:13:43;18.70;99.90
30069;DHT22;16894;49.456;10.644;2022-10-15T11:16:41;18.70;99.90
30069;DHT22;16894;49.456;10.644;2022-10-15T11:19:44;18.90;99.90
30069;DHT22;16894;49.456;10.644;2022-10-15T11:33:15;18.90;99.90
30069;DHT22;16894;49.456;10.644;2022-10-15T11:44:59;19.30;99.90
30069;DHT22;16894;49.456;10.644;2022-10-15T11:47:30;19.30;99.90
30069;DHT22;16894;49.456;10.644;2022-10-15T11:50:11;19.10;99.90
30069;DHT22;16894;49.456;10.644;2022-10-15T11:52:55;18.80;99.90
30069;DHT22;16894;49.456;10.644;2022-10-15T11:55:31;18.50;99.90
30069;DHT22;16894;49.456;10.644;2022-10-15T11:58:02;18.30;99.90
30069;DHT22;16894;49.456;10.644;2022-10-15T12:00:34;18.20;99.90
30069;DHT22;16894;49.456;10.644;2022-10-15T12:03:06;18.20;99.90
30069;DHT22;16894;49.456;10.644;2022-10-15T12:05:40;18.30;99.90
30069;DHT22;16894;49.456;10.644;2022-10-15T12:08:09;18.60;99.90
30069;DHT22;16894;49.456;10.644;2022-10-15T12:10:52;18.80;99.90
30069;DHT22;16894;49.456;10.644;2022-10-15T12:19:13;18.80;99.90
30069;DHT22;16894;49.456;10.644;2022-10-15T12:29:46;17.70;99.90
30069;DHT22;16894;49.456;10.644;2022-10-15T12:32:27;17.80;99.90
30069;DHT22;16894;49.456;10.644;2022-10-15T12:34:57;18.20;99.90
30069;DHT22;16894;49.456;10.644;2022-10-15T12:37:26;19.40;99.90
30069;DHT22;16894;49.456;10.644;2022-10-15T12:40:02;21.50;99.90
30069;DHT22;16894;49.456;10.644;2022-10-15T12:42:35;22.60;99.90
30069;DHT22;16894;49.456;10.644;2022-10-15T12:45:07;22.90;99.90
30069;DHT22;16894;49.456;10.644;2022-10-15T12:47:48;23.40;99.90
30069;DHT22;16894;49.456;10.644;2022-10-15T12:50:20;23.10;99.90
30069;DHT22;16894;49.456;10.644;2022-10-15T12:55:36;22.20;99.90
30069;DHT22;16894;49.456;10.644;2022-10-15T12:58:33;21.60;99.90
30069;DHT22;16894;49.456;10.644;2022-10-15T13:11:26;22.40;99.90
30069;DHT22;16894;49.456;10.644;2022-10-15T13:14:01;22.20;99.90
30069;DHT22;16894;49.456;10.644;2022-10-15T13:16:28;21.50;99.90
30069;DHT22;16894;49.456;10.644;2022-10-15T13:18:55;20.90;99.90
30069;DHT22;16894;49.456;10.644;2022-10-15T13:21:23;20.30;99.90
30069;DHT22;16894;49.456;10.644;2022-10-15T13:24:10;19.90;99.90
30069;DHT22;16894;49.456;10.644;2022-10-15T13:26:35;19.40;99.90
30069;DHT22;16894;49.456;10.644;2022-10-15T13:29:01;19.00;99.90
30069;DHT22;16894;49.456;10.644;2022-10-15T13:31:28;18.80;99.90
30069;DHT22;16894;49.456;10.644;2022-10-15T13:34:01;18.80;99.90
30069;DHT22;16894;49.456;10.644;2022-10-15T13:36:33;19.00;99.90
30069;DHT22;16894;49.456;10.644;2022-10-15T13:39:06;20.00;99.90
30069;DHT22;16894;49.456;10.644;2022-10-15T13:41:36;22.20;99.90
30069;DHT22;16894;49.456;10.644;2022-10-15T13:44:05;24.10;99.90
30069;DHT22;16894;49.456;10.644;2022-10-15T13:46:31;25.90;99.80
30069;DHT22;16894;49.456;10.644;2022-10-15T13:48:59;27.10;99.20
30069;DHT22;16894;49.456;10.644;2022-10-15T13:51:34;26.50;95.70
30069;DHT22;16894;49.456;10.644;2022-10-15T13:54:01;25.10;97.50
30069;DHT22;16894;49.456;10.644;2022-10-15T13:56:31;24.10;98.50
30069;DHT22;16894;49.456;10.644;2022-10-15T13:58:59;22.90;99.90
30069;DHT22;16894;49.456;10.644;2022-10-15T14:01:26;22.50;99.90
30069;DHT22;16894;49.456;10.644;2022-10-15T14:03:54;22.10;99.90
30069;DHT22;16894;49.456;10.644;2022-10-15T14:06:25;21.60;99.90
30069;DHT22;16894;49.456;10.644;2022-10-15T14:08:54;21.00;99.90
30069;DHT22;16894;49.456;10.644;2022-10-15T14:11:21;20.40;99.90
30069;DHT22;16894;49.456;10.644;2022-10-15T14:13:49;20.00;99.90
30069;DHT22;16894;49.456;10.644;2022-10-15T14:19:07;19.70;99.90
30069;DHT22;16894;49.456;10.644;2022-10-15T14:21:34;19.50;99.90
30069;DHT22;16894;49.456;10.644;2022-10-15T14:24:06;19.50;99.90
30069;DHT22;16894;49.456;10.644;2022-10-15T14:26:35;19.50;99.90
30069;DHT22;16894;49.456;10.644;2022-10-15T14:29:01;19.40;99.90
30069;DHT22;16894;49.456;10.644;2022-10-15T14:31:44;19.30;99.90
30069;DHT22;16894;49.456;10.644;2022-10-15T14:34:27;19.00;99.90
30069;DHT22;16894;49.456;10.644;2022-10-15T14:36:54;18.80;99.90
30069;DHT22;16894;49.456;10.644;2022-10-15T14:39:35;18.60;99.90
30069;DHT22;16894;49.456;10.644;2022-10-15T14:42:21;18.50;99.90
30069;DHT22;16894;49.456;10.644;2022-10-15T14:44:49;18.50;99.90
30069;DHT22;16894;49.456;10.644;2022-10-15T14:47:25;18.50;99.90
30069;DHT22;16894;49.456;10.644;2022-10-15T14:49:54;18.60;99.90
30069;DHT22;16894;49.456;10.644;2022-10-15T14:52:20;18.70;99.90
30069;DHT22;16894;49.456;10.644;2022-10-15T14:55:13;18.70;99.90
30069;DHT22;16894;49.456;10.644;2022-10-15T14:57:41;18.70;99.90
30069;DHT22;16894;49.456;10.644;2022-10-15T15:02:40;18.40;99.90
30069;DHT22;16894;49.456;10.644;2022-10-15T15:07:38;18.20;99.90
30069;DHT22;16894;49.456;10.644;2022-10-15T15:10:06;18.20;99.90
30069;DHT22;16894;49.456;10.644;2022-10-15T15:12:32;18.00;99.90
30069;DHT22;16894;49.456;10.644;2022-10-15T15:14:58;17.90;99.90
30069;DHT22;16894;49.456;10.644;2022-10-15T15:17:26;17.90;99.90
30069;DHT22;16894;49.456;10.644;2022-10-15T15:19:53;17.90;99.90
30069;DHT22;16894;49.456;10.644;2022-10-15T15:22:33;17.80;99.90
30069;DHT22;16894;49.456;10.644;2022-10-15T15:25:03;17.90;99.90
30069;DHT22;16894;49.456;10.644;2022-10-15T15:27:30;17.80;99.90
30069;DHT22;16894;49.456;10.644;2022-10-15T15:30:02;17.60;99.90
30069;DHT22;16894;49.456;10.644;2022-10-15T15:32:28;17.60;99.90
30069;DHT22;16894;49.456;10.644;2022-10-15T15:34:53;17.50;99.90
30069;DHT22;16894;49.456;10.644;2022-10-15T15:37:23;17.50;99.90
30069;DHT22;16894;49.456;10.644;2022-10-15T15:39:49;17.50;99.90
30069;DHT22;16894;49.456;10.644;2022-10-15T15:42:19;17.50;99.90
30069;DHT22;16894;49.456;10.644;2022-10-15T15:44:45;17.50;99.90
30069;DHT22;16894;49.456;10.644;2022-10-15T15:47:11;17.30;99.90
30069;DHT22;16894;49.456;10.644;2022-10-15T15:49:37;17.30;99.90
30069;DHT22;16894;49.456;10.644;2022-10-15T15:52:08;17.30;99.90
30069;DHT22;16894;49.456;10.644;2022-10-15T15:54:40;17.30;99.90
30069;DHT22;16894;49.456;10.644;2022-10-15T15:57:06;17.30;99.90
30069;DHT22;16894;49.456;10.644;2022-10-15T15:59:32;17.30;99.90
30069;DHT22;16894;49.456;10.644;2022-10-15T16:01:57;17.30;99.90
30069;DHT22;16894;49.456;10.644;2022-10-15T16:04:23;17.30;99.90
30069;DHT22;16894;49.456;10.644;2022-10-15T16:06:49;17.20;99.90
30069;DHT22;16894;49.456;10.644;2022-10-15T16:09:18;17.10;99.90
30069;DHT22;16894;49.456;10.644;2022-10-15T16:11:47;17.00;99.90
30069;DHT22;16894;49.456;10.644;2022-10-15T16:14:12;17.00;99.90
30069;DHT22;16894;49.456;10.644;2022-10-15T16:16:38;17.00;99.90
30069;DHT22;16894;49.456;10.644;2022-10-15T16:19:04;16.90;99.90
30069;DHT22;16894;49.456;10.644;2022-10-15T16:21:30;16.80;99.90
30069;DHT22;16894;49.456;10.644;2022-10-15T16:23:56;16.80;99.90
30069;DHT22;16894;49.456;10.644;2022-10-15T16:26:22;16.80;99.90
30069;DHT22;16894;49.456;10.644;2022-10-15T16:28:48;16.70;99.90
30069;DHT22;16894;49.456;10.644;2022-10-15T16:31:21;16.70;99.90
30069;DHT22;16894;49.456;10.644;2022-10-15T16:33:47;16.70;99.90
30069;DHT22;16894;49.456;10.644;2022-10-15T16:36:14;16.70;99.90
30069;DHT22;16894;49.456;10.644;2022-10-15T16:38:41;16.60;99.90
30069;DHT22;16894;49.456;10.644;2022-10-15T16:41:08;16.50;99.90
30069;DHT22;16894;49.456;10.644;2022-10-15T16:43:35;16.50;99.90
30069;DHT22;16894;49.456;10.644;2022-10-15T16:46:01;16.50;99.90
30069;DHT22;16894;49.456;10.644;2022-10-15T16:48:31;16.50;99.90
30069;DHT22;16894;49.456;10.644;2022-10-15T16:51:01;16.50;99.90
30069;DHT22;16894;49.456;10.644;2022-10-15T16:53:27;16.50;99.90
30069;DHT22;16894;49.456;10.644;2022-10-15T16:55:58;16.50;99.90
30069;DHT22;16894;49.456;10.644;2022-10-15T16:58:25;16.40;99.90
30069;DHT22;16894;49.456;10.644;2022-10-15T17:00:50;16.40;99.90
30069;DHT22;16894;49.456;10.644;2022-10-15T17:03:16;16.30;99.90
30069;DHT22;16894;49.456;10.644;2022-10-15T17:05:42;16.30;99.90
30069;DHT22;16894;49.456;10.644;2022-10-15T17:08:08;16.30;99.90
30069;DHT22;16894;49.456;10.644;2022-10-15T17:10:34;16.20;99.90
30069;DHT22;16894;49.456;10.644;2022-10-15T17:13:05;16.20;99.90
30069;DHT22;16894;49.456;10.644;2022-10-15T17:15:30;16.20;99.90